Time;durP1;ratioP1;P1;durP2;ratioP2;P2;SDS_P1;SDS_P2;PMS_P1;PMS_P2;Temp;Humidity;BMP_temperature;BMP_pressure;BME280_temperature;BME280_humidity;BME280_pressure;Samples;Min_cycle;Max_cycle;Signal;HPM_P1;HPM_P2
2022/11/13 00:00:20;;;;;;;0.68;0.68;;;15.90;98.00;;;;;;5100149;28;20219;-64
2022/11/13 00:03:08;;;;;;;0.40;0.40;;;15.90;98.00;;;;;;5102540;28;20199;-64
2022/11/13 00:05:59;;;;;;;0.60;0.60;;;15.90;98.10;;;;;;5101776;28;20243;-64
2022/11/13 00:08:53;;;;;;;0.93;0.93;;;15.90;98.10;;;;;;5100449;28;20200;-64
2022/11/13 00:11:41;;;;;;;0.50;0.50;;;15.90;98.00;;;;;;5103017;28;20215;-64
2022/11/13 00:14:29;;;;;;;0.50;0.50;;;15.90;98.40;;;;;;5103081;28;20253;-64
2022/11/13 00:17:17;;;;;;;0.40;0.40;;;15.90;98.00;;;;;;5094271;28;20633;-64
2022/11/13 00:20:06;;;;;;;0.40;0.40;;;15.90;98.10;;;;;;5103147;28;20278;-64
2022/11/13 00:22:54;;;;;;;0.40;0.40;;;15.90;98.10;;;;;;5102547;28;20265;-64
2022/11/13 00:25:43;;;;;;;0.40;0.40;;;15.90;98.00;;;;;;5103059;28;20762;-64
2022/11/13 00:28:31;;;;;;;1.13;1.13;;;15.90;98.10;;;;;;5102410;28;20729;-64
2022/11/13 00:31:20;;;;;;;0.47;0.47;;;15.90;98.10;;;;;;5104369;28;20235;-64
2022/11/13 00:34:09;;;;;;;0.60;0.60;;;15.90;98.10;;;;;;5115237;28;20329;-64
2022/11/13 00:37:18;;;;;;;0.40;0.40;;;15.90;98.10;;;;;;5113953;28;20234;-64
2022/11/13 00:40:07;;;;;;;0.40;0.40;;;15.90;98.20;;;;;;5114351;28;20751;-64
2022/11/13 00:42:56;;;;;;;0.40;0.40;;;15.90;98.00;;;;;;5113917;28;20240;-64
2022/11/13 00:45:44;;;;;;;2.35;2.25;;;15.90;98.20;;;;;;5114447;28;20215;-64
2022/11/13 00:48:32;;;;;;;0.85;0.85;;;15.90;98.20;;;;;;5113460;28;20282;-64
2022/11/13 00:51:20;;;;;;;0.60;0.60;;;15.90;98.20;;;;;;5113731;28;20219;-65
2022/11/13 00:54:08;;;;;;;0.40;0.40;;;15.90;98.10;;;;;;5113905;28;20702;-64
2022/11/13 00:56:56;;;;;;;0.40;0.40;;;15.90;98.10;;;;;;5106686;28;20277;-65
2022/11/13 00:59:46;;;;;;;2.05;1.38;;;15.90;98.20;;;;;;5095005;28;20253;-65
2022/11/13 01:02:34;;;;;;;0.40;0.40;;;15.90;98.20;;;;;;5093918;28;20196;-65
2022/11/13 01:05:22;;;;;;;0.40;0.40;;;15.90;99.90;;;;;;5093030;28;20192;-65
2022/11/13 01:08:11;;;;;;;0.40;0.40;;;15.90;98.20;;;;;;5093926;28;20196;-65
2022/11/13 01:10:59;;;;;;;0.40;0.40;;;15.90;98.20;;;;;;5093394;28;20652;-65
2022/11/13 01:13:49;;;;;;;0.40;0.40;;;15.90;98.20;;;;;;5093620;28;20235;-65
2022/11/13 01:16:38;;;;;;;0.40;0.40;;;15.90;98.20;;;;;;5094826;28;20299;-65
2022/11/13 01:19:26;;;;;;;0.40;0.40;;;15.90;98.30;;;;;;5093244;28;20200;-65
2022/11/13 01:22:15;;;;;;;0.40;0.40;;;15.90;98.20;;;;;;5093596;28;20223;-65
2022/11/13 01:25:03;;;;;;;0.40;0.40;;;15.90;98.00;;;;;;5093212;28;20281;-65
2022/11/13 01:27:51;;;;;;;0.90;0.90;;;15.90;98.30;;;;;;5094216;28;20695;-65
2022/11/13 01:30:39;;;;;;;0.50;0.50;;;15.90;98.30;;;;;;5092366;28;20275;-65
2022/11/13 01:33:29;;;;;;;1.50;1.40;;;15.90;98.30;;;;;;5093505;28;20223;-65
2022/11/13 01:36:20;;;;;;;0.88;0.88;;;15.90;98.30;;;;;;5092609;28;20228;-65
2022/11/13 01:39:10;;;;;;;0.40;0.40;;;15.90;98.30;;;;;;5093910;28;20200;-65
2022/11/13 01:41:58;;;;;;;0.40;0.40;;;16.00;98.40;;;;;;5092845;28;20219;-65
2022/11/13 01:44:51;;;;;;;0.40;0.40;;;16.00;98.40;;;;;;5094101;28;20199;-65
2022/11/13 01:47:39;;;;;;;0.40;0.40;;;15.90;98.40;;;;;;5094301;28;20200;-65
2022/11/13 01:50:29;;;;;;;0.40;0.40;;;15.90;98.40;;;;;;5093569;28;20710;-65
2022/11/13 01:53:17;;;;;;;0.40;0.40;;;15.90;98.40;;;;;;5093951;28;20222;-65
2022/11/13 01:56:07;;;;;;;0.40;0.40;;;16.00;98.40;;;;;;5093589;28;20247;-65
2022/11/13 01:59:04;;;;;;;0.40;0.40;;;15.90;98.40;;;;;;5072855;28;20250;-65
2022/11/13 02:01:53;;;;;;;0.40;0.40;;;16.00;98.50;;;;;;5072031;28;20284;-65
2022/11/13 02:04:42;;;;;;;0.50;0.50;;;16.00;98.50;;;;;;5073396;28;20203;-65
2022/11/13 02:07:31;;;;;;;0.50;0.50;;;16.10;98.50;;;;;;5073325;28;20203;-65
2022/11/13 02:10:19;;;;;;;2.17;2.05;;;16.00;98.50;;;;;;5072353;28;20287;-65
2022/11/13 02:13:07;;;;;;;0.40;0.40;;;16.00;98.50;;;;;;5073247;28;20231;-65
2022/11/13 02:15:56;;;;;;;0.40;0.40;;;16.00;98.50;;;;;;5072677;28;20225;-65
2022/11/13 02:18:45;;;;;;;0.50;0.50;;;16.00;98.50;;;;;;5072917;28;20291;-65
2022/11/13 02:21:41;;;;;;;0.40;0.40;;;16.00;98.50;;;;;;5071856;28;20610;-65
2022/11/13 02:24:33;;;;;;;0.40;0.40;;;16.00;98.50;;;;;;5072793;28;20204;-65
2022/11/13 02:27:30;;;;;;;0.40;0.40;;;16.00;98.50;;;;;;5073831;28;20235;-65
2022/11/13 02:30:21;;;;;;;2.05;1.95;;;16.00;98.50;;;;;;5072669;28;20228;-65
2022/11/13 02:33:22;;;;;;;0.40;0.40;;;16.00;98.50;;;;;;5072255;28;20216;-65
2022/11/13 02:36:12;;;;;;;0.40;0.40;;;16.00;98.50;;;;;;5072341;28;20598;-65
2022/11/13 02:39:06;;;;;;;0.40;0.40;;;16.00;98.60;;;;;;5082955;28;20682;-65
2022/11/13 02:41:55;;;;;;;0.40;0.40;;;16.00;98.50;;;;;;5094068;28;20546;-65
2022/11/13 02:44:43;;;;;;;0.40;0.40;;;16.00;98.60;;;;;;5087348;28;20229;-65
2022/11/13 02:47:32;;;;;;;0.50;0.50;;;16.10;98.60;;;;;;5090500;28;20310;-65
2022/11/13 02:50:20;;;;;;;0.40;0.40;;;16.00;98.60;;;;;;5089965;28;20259;-65
2022/11/13 02:53:08;;;;;;;0.40;0.40;;;16.00;98.60;;;;;;5092112;28;20220;-65
2022/11/13 02:55:56;;;;;;;1.98;1.95;;;16.00;98.60;;;;;;5092986;28;20216;-65
2022/11/13 02:58:45;;;;;;;0.40;0.40;;;16.10;98.60;;;;;;5072693;28;20203;-65
2022/11/13 03:01:33;;;;;;;3.03;1.30;;;16.00;98.60;;;;;;5072223;28;20208;-65
2022/11/13 03:04:21;;;;;;;0.40;0.40;;;16.00;98.60;;;;;;5072193;28;20268;-65
2022/11/13 03:07:09;;;;;;;0.40;0.40;;;16.00;98.60;;;;;;5073769;28;20227;-65
2022/11/13 03:09:57;;;;;;;0.40;0.40;;;16.10;98.60;;;;;;5075943;28;20748;-65
2022/11/13 03:12:45;;;;;;;0.40;0.40;;;16.10;98.70;;;;;;5075115;28;20326;-65
2022/11/13 03:15:35;;;;;;;0.85;0.85;;;16.10;98.70;;;;;;5074945;28;20803;-65
2022/11/13 03:18:23;;;;;;;0.75;0.75;;;16.10;98.70;;;;;;5075885;28;20276;-65
2022/11/13 03:21:13;;;;;;;1.35;1.25;;;16.10;98.70;;;;;;5076378;28;20204;-65
2022/11/13 03:24:01;;;;;;;1.23;1.23;;;16.10;98.70;;;;;;5075336;28;20829;-65
2022/11/13 03:26:49;;;;;;;0.52;0.52;;;16.10;98.70;;;;;;5076116;28;20232;-65
2022/11/13 03:29:37;;;;;;;0.40;0.40;;;16.10;98.70;;;;;;5075027;28;20284;-65
2022/11/13 03:32:26;;;;;;;0.40;0.40;;;16.10;98.70;;;;;;5075847;28;20192;-65
2022/11/13 03:35:14;;;;;;;0.40;0.40;;;16.10;98.50;;;;;;5074826;28;20207;-65
2022/11/13 03:38:02;;;;;;;0.40;0.40;;;16.10;98.80;;;;;;5076828;28;20697;-65
2022/11/13 03:40:51;;;;;;;0.40;0.40;;;16.10;98.80;;;;;;5075541;28;20205;-65
2022/11/13 03:43:39;;;;;;;1.63;1.63;;;16.10;98.80;;;;;;5075554;28;20275;-65
2022/11/13 03:46:27;;;;;;;0.40;0.40;;;16.10;98.80;;;;;;5076227;28;20288;-65
2022/11/13 03:49:16;;;;;;;0.40;0.40;;;16.10;99.10;;;;;;5076657;28;20205;-65
2022/11/13 03:52:04;;;;;;;0.40;0.40;;;16.00;98.70;;;;;;5074136;28;20204;-65
2022/11/13 03:54:52;;;;;;;0.40;0.40;;;16.10;98.80;;;;;;5075885;28;20211;-65
2022/11/13 03:57:40;;;;;;;1.70;1.60;;;16.10;99.20;;;;;;5088965;28;20202;-65
2022/11/13 04:00:29;;;;;;;0.40;0.40;;;16.10;98.80;;;;;;5096178;28;20200;-65
2022/11/13 04:03:17;;;;;;;0.40;0.40;;;16.10;98.80;;;;;;5095574;28;20203;-65
2022/11/13 04:06:06;;;;;;;0.40;0.40;;;16.10;98.90;;;;;;5095088;28;20219;-65
2022/11/13 04:08:54;;;;;;;0.40;0.40;;;16.10;98.90;;;;;;5095837;28;20696;-65
2022/11/13 04:11:42;;;;;;;0.40;0.40;;;16.10;98.90;;;;;;5095203;28;20196;-65
2022/11/13 04:14:30;;;;;;;0.40;0.40;;;16.10;98.90;;;;;;5094172;28;20230;-65
2022/11/13 04:17:18;;;;;;;0.40;0.40;;;16.10;98.90;;;;;;5094654;28;20282;-65
2022/11/13 04:20:08;;;;;;;0.40;0.40;;;16.10;98.90;;;;;;5094338;28;20201;-65
2022/11/13 04:22:57;;;;;;;0.40;0.40;;;16.10;98.80;;;;;;5094696;28;20200;-65
2022/11/13 04:25:48;;;;;;;0.87;0.87;;;16.10;98.90;;;;;;5095142;28;20603;-65
2022/11/13 04:28:36;;;;;;;0.40;0.40;;;16.20;99.00;;;;;;5095353;28;20230;-65
2022/11/13 04:31:24;;;;;;;0.40;0.40;;;16.10;98.90;;;;;;5095253;28;20234;-65
2022/11/13 04:34:12;;;;;;;0.40;0.40;;;16.10;98.90;;;;;;5095175;28;20307;-64
2022/11/13 04:37:00;;;;;;;0.50;0.50;;;16.10;98.70;;;;;;5105108;22;20234;-64
2022/11/13 04:39:49;;;;;;;0.40;0.40;;;16.10;98.90;;;;;;5074329;28;20204;-66
2022/11/13 04:42:48;;;;;;;0.40;0.40;;;16.20;99.00;;;;;;5086782;28;20214;-66
2022/11/13 04:45:37;;;;;;;0.40;0.40;;;16.10;99.00;;;;;;5094726;28;20279;-65
2022/11/13 04:48:25;;;;;;;0.40;0.40;;;16.10;98.90;;;;;;5094211;28;20203;-64
2022/11/13 04:51:13;;;;;;;1.95;1.85;;;16.10;99.00;;;;;;5094693;28;20207;-65
2022/11/13 04:54:01;;;;;;;0.40;0.40;;;16.10;98.90;;;;;;5094147;28;20218;-66
2022/11/13 04:56:51;;;;;;;0.60;0.60;;;16.20;99.00;;;;;;5088293;28;20217;-65
2022/11/13 04:59:39;;;;;;;0.40;0.40;;;16.10;98.90;;;;;;5073857;28;20280;-66
2022/11/13 05:02:27;;;;;;;0.40;0.40;;;16.10;99.00;;;;;;5074424;28;20212;-67
2022/11/13 05:05:15;;;;;;;1.85;1.75;;;16.10;99.00;;;;;;5075192;28;20241;-65
2022/11/13 05:08:03;;;;;;;0.95;0.95;;;16.10;99.00;;;;;;5074298;28;20730;-65
2022/11/13 05:10:51;;;;;;;0.40;0.40;;;16.10;99.00;;;;;;5074877;28;20626;-65
2022/11/13 05:13:40;;;;;;;0.40;0.40;;;16.10;99.00;;;;;;5074729;28;20220;-67
2022/11/13 05:16:29;;;;;;;0.40;0.40;;;16.10;99.00;;;;;;5074429;28;20671;-67
2022/11/13 05:19:17;;;;;;;3.22;3.00;;;16.20;99.00;;;;;;5074472;28;20235;-66
2022/11/13 05:22:06;;;;;;;0.40;0.40;;;16.20;99.10;;;;;;5073647;28;20203;-65
2022/11/13 05:24:54;;;;;;;0.40;0.40;;;16.10;99.00;;;;;;5074504;28;20203;-66
2022/11/13 05:27:42;;;;;;;0.40;0.40;;;16.20;99.00;;;;;;5073732;28;20301;-65
2022/11/13 05:30:31;;;;;;;0.40;0.40;;;16.20;99.00;;;;;;5073053;28;20207;-65
2022/11/13 05:33:19;;;;;;;0.40;0.40;;;16.20;99.00;;;;;;5073953;28;20205;-66
2022/11/13 05:36:09;;;;;;;0.40;0.40;;;16.20;99.00;;;;;;5073541;28;20543;-65
2022/11/13 05:38:57;;;;;;;0.40;0.40;;;16.20;99.30;;;;;;5073452;28;20659;-65
2022/11/13 05:41:45;;;;;;;0.40;0.40;;;16.20;99.00;;;;;;5071425;28;20202;-66
2022/11/13 05:44:33;;;;;;;0.40;0.40;;;16.20;99.00;;;;;;5072684;28;20464;-65
2022/11/13 05:47:22;;;;;;;0.40;0.40;;;16.20;99.00;;;;;;5073201;28;20487;-65
2022/11/13 05:50:11;;;;;;;0.40;0.40;;;16.20;99.00;;;;;;5072877;28;20278;-66
2022/11/13 05:52:59;;;;;;;0.40;0.40;;;16.20;99.00;;;;;;5074091;28;20243;-64
2022/11/13 05:55:47;;;;;;;1.70;1.67;;;16.20;99.00;;;;;;5072955;28;20217;-65
2022/11/13 05:58:35;;;;;;;0.40;0.40;;;16.20;99.00;;;;;;5053402;28;20644;-64
2022/11/13 06:01:25;;;;;;;0.40;0.40;;;16.20;99.00;;;;;;5052759;28;20296;-66
2022/11/13 06:04:14;;;;;;;0.40;0.40;;;16.20;99.00;;;;;;5052815;28;20194;-67
2022/11/13 06:07:02;;;;;;;0.40;0.40;;;16.20;99.10;;;;;;5052615;28;20239;-68
2022/11/13 06:09:50;;;;;;;0.50;0.50;;;16.20;99.00;;;;;;5051848;28;20208;-68
2022/11/13 06:12:38;;;;;;;1.58;1.48;;;16.20;99.00;;;;;;5051277;28;20581;-66
2022/11/13 06:15:26;;;;;;;0.40;0.40;;;16.20;99.00;;;;;;5051748;28;20217;-65
2022/11/13 06:18:14;;;;;;;0.40;0.40;;;16.20;99.00;;;;;;5052203;28;20197;-66
2022/11/13 06:21:04;;;;;;;0.40;0.40;;;16.10;99.00;;;;;;5051864;28;20201;-65
2022/11/13 06:23:53;;;;;;;0.40;0.40;;;16.20;99.00;;;;;;5052745;28;20238;-64
2022/11/13 06:26:41;;;;;;;0.40;0.40;;;16.20;99.00;;;;;;5051513;28;20745;-67
2022/11/13 06:29:29;;;;;;;0.40;0.40;;;16.20;99.00;;;;;;5051941;28;20207;-67
2022/11/13 06:32:17;;;;;;;0.40;0.40;;;16.20;99.10;;;;;;5052066;28;20700;-65
2022/11/13 06:35:06;;;;;;;0.40;0.40;;;16.20;99.00;;;;;;5051743;28;20596;-66
2022/11/13 06:37:55;;;;;;;0.40;0.40;;;16.20;99.00;;;;;;5052725;28;20209;-67
2022/11/13 06:40:43;;;;;;;0.40;0.40;;;16.20;99.00;;;;;;5052027;28;20251;-66
2022/11/13 06:43:32;;;;;;;0.40;0.40;;;16.20;99.10;;;;;;5051969;28;20642;-66
2022/11/13 06:46:21;;;;;;;0.40;0.40;;;16.20;99.00;;;;;;5052362;28;20292;-66
2022/11/13 06:49:09;;;;;;;0.40;0.40;;;16.20;99.00;;;;;;5051970;28;20205;-67
2022/11/13 06:51:57;;;;;;;0.40;0.40;;;16.30;99.10;;;;;;5052154;28;20201;-66
2022/11/13 06:54:47;;;;;;;0.40;0.40;;;16.20;99.10;;;;;;5052205;28;20232;-68
2022/11/13 06:57:35;;;;;;;0.40;0.40;;;16.20;99.00;;;;;;5076893;28;20220;-65
2022/11/13 07:00:23;;;;;;;0.40;0.40;;;16.30;99.10;;;;;;5091671;28;20192;-67
2022/11/13 07:03:16;;;;;;;0.40;0.40;;;16.20;99.20;;;;;;5053487;28;20201;-66
2022/11/13 07:06:07;;;;;;;0.40;0.40;;;16.20;99.10;;;;;;5052609;28;20226;-66
2022/11/13 07:08:55;;;;;;;0.40;0.40;;;16.20;99.10;;;;;;5052533;28;20584;-66
2022/11/13 07:11:44;;;;;;;0.40;0.40;;;16.20;99.10;;;;;;5052259;28;20200;-66
2022/11/13 07:14:32;;;;;;;0.40;0.40;;;16.20;99.10;;;;;;5052159;28;20221;-68
2022/11/13 07:17:20;;;;;;;2.38;2.28;;;16.20;99.10;;;;;;5052514;28;20731;-68
2022/11/13 07:20:09;;;;;;;0.40;0.40;;;16.20;99.10;;;;;;5052179;28;20286;-68
2022/11/13 07:22:59;;;;;;;0.40;0.40;;;16.20;99.10;;;;;;5051785;28;20205;-66
2022/11/13 07:25:47;;;;;;;0.40;0.40;;;16.20;99.10;;;;;;5052880;28;20217;-65
2022/11/13 07:28:36;;;;;;;0.40;0.40;;;16.20;99.10;;;;;;5052667;28;20267;-67
2022/11/13 07:31:24;;;;;;;0.40;0.40;;;16.20;99.10;;;;;;5051766;28;20205;-65
2022/11/13 07:34:13;;;;;;;0.40;0.40;;;16.30;99.10;;;;;;5051215;28;20584;-65
2022/11/13 07:37:01;;;;;;;0.40;0.40;;;16.20;99.10;;;;;;5051185;28;20232;-65
2022/11/13 07:39:49;;;;;;;0.40;0.40;;;16.20;99.10;;;;;;5051498;28;20236;-66
2022/11/13 07:42:38;;;;;;;0.40;0.40;;;16.30;99.10;;;;;;5052017;28;20276;-65
2022/11/13 07:45:28;;;;;;;0.40;0.40;;;16.20;99.10;;;;;;5051248;28;20573;-64
2022/11/13 07:48:16;;;;;;;0.40;0.40;;;16.20;99.20;;;;;;5051874;28;20737;-65
2022/11/13 07:51:04;;;;;;;0.40;0.40;;;16.20;99.10;;;;;;5051632;28;20204;-66
2022/11/13 07:53:52;;;;;;;0.40;0.40;;;16.20;99.10;;;;;;5054395;28;20584;-66
2022/11/13 07:56:40;;;;;;;0.40;0.40;;;16.20;99.00;;;;;;5064912;28;20673;-66
2022/11/13 07:59:28;;;;;;;0.40;0.40;;;16.20;99.10;;;;;;5095045;28;20200;-64
2022/11/13 08:02:18;;;;;;;0.50;0.50;;;16.30;99.10;;;;;;5096542;28;20196;-65
2022/11/13 08:05:13;;;;;;;0.40;0.40;;;16.20;99.10;;;;;;5095941;28;20200;-65
2022/11/13 08:08:01;;;;;;;0.40;0.40;;;16.20;99.10;;;;;;5095761;28;20200;-66
2022/11/13 08:10:49;;;;;;;0.40;0.40;;;16.20;99.20;;;;;;5095539;28;20204;-66
2022/11/13 08:13:37;;;;;;;0.40;0.40;;;16.20;99.20;;;;;;5095933;28;20220;-66
2022/11/13 08:16:26;;;;;;;0.40;0.40;;;16.20;99.20;;;;;;5095511;28;20511;-66
2022/11/13 08:19:15;;;;;;;0.40;0.40;;;16.30;99.20;;;;;;5094786;28;20279;-68
2022/11/13 08:22:03;;;;;;;0.40;0.40;;;16.20;99.50;;;;;;5095509;28;20226;-67
2022/11/13 08:24:52;;;;;;;0.40;0.40;;;16.30;99.50;;;;;;5095643;28;20196;-66
2022/11/13 08:27:40;;;;;;;0.40;0.40;;;16.20;99.10;;;;;;5094702;28;20763;-67
2022/11/13 08:30:29;;;;;;;0.40;0.40;;;16.30;99.20;;;;;;5094909;28;20702;-67
2022/11/13 08:33:17;;;;;;;0.40;0.40;;;16.20;99.20;;;;;;5094909;28;20200;-66
2022/11/13 08:36:07;;;;;;;0.40;0.40;;;16.20;99.20;;;;;;5094563;28;20224;-66
2022/11/13 08:38:55;;;;;;;0.40;0.40;;;16.30;99.30;;;;;;5095105;28;20209;-66
2022/11/13 08:41:43;;;;;;;0.40;0.40;;;16.20;99.30;;;;;;5095217;28;20668;-66
2022/11/13 08:44:31;;;;;;;0.40;0.40;;;16.30;99.30;;;;;;5095547;28;20231;-67
2022/11/13 08:47:19;;;;;;;0.40;0.40;;;16.30;99.30;;;;;;5094339;28;20603;-65
2022/11/13 08:50:12;;;;;;;0.40;0.40;;;16.30;99.30;;;;;;5095051;28;20198;-66
2022/11/13 08:53:01;;;;;;;0.40;0.40;;;16.30;99.30;;;;;;5094429;28;20231;-65
2022/11/13 08:55:50;;;;;;;0.40;0.40;;;16.20;99.20;;;;;;5094713;28;20249;-67
2022/11/13 08:58:38;;;;;;;12.55;4.85;;;16.30;99.30;;;;;;5055425;28;20202;-66
2022/11/13 09:01:26;;;;;;;0.40;0.40;;;16.30;99.20;;;;;;5054890;28;20263;-66
2022/11/13 09:04:14;;;;;;;0.40;0.40;;;16.30;99.30;;;;;;5053172;28;20299;-65
2022/11/13 09:07:02;;;;;;;0.40;0.40;;;16.30;99.30;;;;;;5054229;28;20222;-64
2022/11/13 09:09:51;;;;;;;0.40;0.40;;;16.30;99.30;;;;;;5055290;28;20228;-66
2022/11/13 09:12:39;;;;;;;0.40;0.40;;;16.30;99.40;;;;;;5053608;28;20621;-66
2022/11/13 09:15:28;;;;;;;0.75;0.75;;;16.30;99.10;;;;;;5053807;28;20688;-66
2022/11/13 09:18:16;;;;;;;0.40;0.40;;;16.30;99.30;;;;;;5053452;28;20224;-67
2022/11/13 09:21:04;;;;;;;0.40;0.40;;;16.30;99.30;;;;;;5053824;28;20216;-67
2022/11/13 09:23:52;;;;;;;0.40;0.40;;;16.30;99.30;;;;;;5054238;28;20259;-66
2022/11/13 09:26:41;;;;;;;0.40;0.40;;;16.30;99.30;;;;;;5053633;28;20229;-67
2022/11/13 09:29:29;;;;;;;0.40;0.40;;;16.30;99.20;;;;;;5053509;28;20224;-66
2022/11/13 09:32:17;;;;;;;0.40;0.40;;;16.30;99.30;;;;;;5053524;28;20279;-65
2022/11/13 09:35:06;;;;;;;0.40;0.40;;;16.30;99.20;;;;;;5053395;28;20228;-66
2022/11/13 09:37:54;;;;;;;0.40;0.40;;;16.30;99.20;;;;;;5053743;28;20200;-66
2022/11/13 09:40:47;;;;;;;0.40;0.40;;;16.30;99.20;;;;;;5053033;28;20243;-65
2022/11/13 09:43:42;;;;;;;0.40;0.40;;;16.40;99.30;;;;;;5053551;28;20198;-65
2022/11/13 09:46:37;;;;;;;0.40;0.40;;;16.30;99.20;;;;;;5052491;28;20221;-65
2022/11/13 09:49:29;;;;;;;0.40;0.40;;;16.40;99.30;;;;;;5053278;28;20642;-65
2022/11/13 09:52:21;;;;;;;0.40;0.40;;;16.30;99.30;;;;;;5052318;28;20692;-66
2022/11/13 09:55:12;;;;;;;0.40;0.40;;;16.40;99.30;;;;;;5053115;28;20233;-68
2022/11/13 09:58:07;;;;;;;0.40;0.40;;;16.30;99.30;;;;;;5084727;28;20309;-66
2022/11/13 10:01:00;;;;;;;0.40;0.40;;;16.90;99.60;;;;;;5093042;28;20546;-67
2022/11/13 10:03:53;;;;;;;0.40;0.40;;;16.30;99.30;;;;;;5092715;28;20253;-66
2022/11/13 10:07:04;;;;;;;0.40;0.40;;;16.40;99.30;;;;;;5092969;28;20365;-66
2022/11/13 10:10:06;;;;;;;0.40;0.40;;;16.30;99.30;;;;;;5092809;28;20195;-66
2022/11/13 10:12:57;;;;;;;0.40;0.40;;;16.40;99.30;;;;;;5092909;28;20199;-66
2022/11/13 10:15:51;;;;;;;0.70;0.70;;;16.30;99.30;;;;;;5093190;28;20688;-66
2022/11/13 10:18:41;;;;;;;0.40;0.40;;;16.40;99.30;;;;;;5092153;28;20204;-68
2022/11/13 10:21:34;;;;;;;0.47;0.47;;;16.30;99.30;;;;;;5092187;28;20192;-70
2022/11/13 10:24:27;;;;;;;0.40;0.40;;;16.30;99.30;;;;;;5093672;28;20200;-65
2022/11/13 10:27:15;;;;;;;0.40;0.40;;;16.50;99.40;;;;;;5092262;28;20611;-67
2022/11/13 10:30:06;;;;;;;1.90;1.80;;;16.30;99.30;;;;;;5093394;28;20200;-68
2022/11/13 10:32:54;;;;;;;0.40;0.40;;;16.30;99.30;;;;;;5092639;28;20207;-67
2022/11/13 10:38:20;;;;;;;0.50;0.50;;;16.30;99.00;;;;;;5113500;22;20247;-66
2022/11/13 10:41:11;;;;;;;0.30;0.30;;;16.40;99.30;;;;;;5091566;28;20717;-66
2022/11/13 10:44:08;;;;;;;0.43;0.43;;;16.30;99.20;;;;;;5091644;28;20196;-66
2022/11/13 10:47:13;;;;;;;0.40;0.40;;;16.40;99.30;;;;;;5091812;28;20219;-66
2022/11/13 10:50:10;;;;;;;1.35;1.25;;;16.40;99.20;;;;;;5091861;28;20694;-66
2022/11/13 10:52:58;;;;;;;0.40;0.40;;;16.30;99.20;;;;;;5093393;28;20274;-66
2022/11/13 10:55:51;;;;;;;0.40;0.40;;;16.40;98.90;;;;;;5091680;28;20569;-66
2022/11/13 10:58:39;;;;;;;0.40;0.40;;;16.40;99.20;;;;;;5077175;28;20207;-66
2022/11/13 11:01:27;;;;;;;0.40;0.40;;;16.40;99.20;;;;;;5076188;28;20415;-66
2022/11/13 11:04:22;;;;;;;0.40;0.40;;;16.50;99.20;;;;;;5071365;28;20216;-66
2022/11/13 11:07:15;;;;;;;0.40;0.40;;;16.40;99.20;;;;;;5070584;28;20208;-66
2022/11/13 11:10:21;;;;;;;0.40;0.40;;;16.40;99.20;;;;;;5070852;28;20584;-66
2022/11/13 11:13:20;;;;;;;0.40;0.40;;;16.40;99.10;;;;;;5072565;28;20196;-66
2022/11/13 11:16:11;;;;;;;0.40;0.40;;;16.40;99.20;;;;;;5071655;28;20220;-66
2022/11/13 11:19:02;;;;;;;0.40;0.40;;;16.40;99.10;;;;;;5071986;28;20279;-66
2022/11/13 11:21:56;;;;;;;0.40;0.40;;;16.40;99.10;;;;;;5075833;28;20322;-64
2022/11/13 11:24:51;;;;;;;0.40;0.40;;;16.40;99.10;;;;;;5071850;28;20211;-65
2022/11/13 11:27:45;;;;;;;0.40;0.40;;;16.50;99.10;;;;;;5072564;28;20234;-65
2022/11/13 11:30:40;;;;;;;0.40;0.40;;;16.40;99.10;;;;;;5074711;28;20200;-65
2022/11/13 11:33:32;;;;;;;0.40;0.40;;;16.40;99.10;;;;;;5075936;28;20604;-65
2022/11/13 11:36:30;;;;;;;0.40;0.40;;;16.50;99.10;;;;;;5075019;28;20366;-65
2022/11/13 11:39:27;;;;;;;0.40;0.40;;;16.40;99.00;;;;;;5074766;28;20254;-64
2022/11/13 11:42:25;;;;;;;0.40;0.40;;;16.50;99.10;;;;;;5075459;28;20205;-65
2022/11/13 11:45:19;;;;;;;0.40;0.40;;;16.50;99.10;;;;;;5075113;28;20201;-65
2022/11/13 11:48:13;;;;;;;0.40;0.40;;;16.40;99.00;;;;;;5076015;28;20216;-65
2022/11/13 11:51:07;;;;;;;0.40;0.40;;;16.40;99.00;;;;;;5074713;28;20548;-65
2022/11/13 11:54:05;;;;;;;0.40;0.40;;;16.40;99.00;;;;;;5075923;28;20236;-65
2022/11/13 11:56:57;;;;;;;0.40;0.40;;;16.50;99.10;;;;;;5091059;28;20227;-65
2022/11/13 12:00:00;;;;;;;0.40;0.40;;;16.40;99.00;;;;;;5118113;28;20684;-64
2022/11/13 12:03:19;;;;;;;0.40;0.40;;;16.50;99.00;;;;;;5118859;28;20199;-65
2022/11/13 12:06:16;;;;;;;0.40;0.40;;;16.50;99.00;;;;;;5115865;28;20306;-65
2022/11/13 12:09:12;;;;;;;0.40;0.40;;;16.50;99.00;;;;;;5115978;28;20213;-64
2022/11/13 12:12:09;;;;;;;0.40;0.40;;;16.50;99.00;;;;;;5117157;28;20199;-65
2022/11/13 12:15:03;;;;;;;0.40;0.40;;;16.50;99.00;;;;;;5115412;28;20282;-65
2022/11/13 12:17:59;;;;;;;0.40;0.40;;;16.50;99.00;;;;;;5115088;28;20585;-65
2022/11/13 12:20:56;;;;;;;0.40;0.40;;;16.40;98.90;;;;;;5114386;28;20196;-65
2022/11/13 12:24:00;;;;;;;0.40;0.40;;;16.50;99.00;;;;;;5115454;28;20201;-65
2022/11/13 12:26:58;;;;;;;0.40;0.40;;;16.50;99.00;;;;;;5113827;28;20589;-65
2022/11/13 12:29:58;;;;;;;0.40;0.40;;;16.50;99.00;;;;;;5114449;28;20278;-65
2022/11/13 12:33:02;;;;;;;0.40;0.40;;;16.50;98.90;;;;;;5115467;28;20206;-65
2022/11/13 12:35:53;;;;;;;0.40;0.40;;;16.50;98.70;;;;;;5115275;28;20282;-65
2022/11/13 12:38:50;;;;;;;0.40;0.40;;;16.60;99.00;;;;;;5114261;28;20219;-65
2022/11/13 12:41:47;;;;;;;0.40;0.40;;;16.50;98.90;;;;;;5114106;28;20796;-65
2022/11/13 12:44:46;;;;;;;0.40;0.40;;;16.50;98.90;;;;;;5115399;28;20203;-65
2022/11/13 12:47:34;;;;;;;2.85;2.75;;;16.50;98.90;;;;;;5115253;28;20746;-65
2022/11/13 12:50:26;;;;;;;0.40;0.40;;;16.50;98.90;;;;;;5114610;28;20195;-65
2022/11/13 12:53:27;;;;;;;0.40;0.40;;;16.50;98.90;;;;;;5115800;27;20195;-65
2022/11/13 12:56:28;;;;;;;0.40;0.40;;;16.60;99.00;;;;;;5112590;28;20314;-65
2022/11/13 12:59:32;;;;;;;0.40;0.40;;;16.50;98.90;;;;;;5091792;28;20227;-65
2022/11/13 13:02:38;;;;;;;0.40;0.40;;;16.50;98.90;;;;;;5093113;28;20292;-64
2022/11/13 13:05:37;;;;;;;0.40;0.40;;;16.50;98.90;;;;;;5091940;28;20279;-65
2022/11/13 13:09:01;;;;;;;0.40;0.40;;;16.60;99.00;;;;;;5093306;28;20188;-65
2022/11/13 13:12:00;;;;;;;0.40;0.40;;;16.50;98.90;;;;;;5093468;28;20203;-65
2022/11/13 13:15:23;;;;;;;0.40;0.40;;;16.60;98.90;;;;;;5093273;28;20231;-64
2022/11/13 13:18:23;;;;;;;0.40;0.40;;;16.60;98.90;;;;;;5094756;28;20215;-64
2022/11/13 13:21:13;;;;;;;0.40;0.40;;;16.50;98.90;;;;;;5092185;28;20751;-65
2022/11/13 13:24:10;;;;;;;0.40;0.40;;;16.50;99.20;;;;;;5093113;28;20192;-65
2022/11/13 13:26:58;;;;;;;0.40;0.40;;;16.50;98.90;;;;;;5093849;28;20223;-65
2022/11/13 13:29:47;;;;;;;0.40;0.40;;;16.50;98.90;;;;;;5092597;28;20196;-65
2022/11/13 13:32:44;;;;;;;0.40;0.40;;;16.60;98.90;;;;;;5092185;28;20289;-65
2022/11/13 13:35:39;;;;;;;0.40;0.40;;;16.50;98.90;;;;;;5091801;28;20200;-65
2022/11/13 13:38:32;;;;;;;0.40;0.40;;;16.50;98.90;;;;;;5091951;28;20707;-65
2022/11/13 13:41:31;;;;;;;0.40;0.40;;;16.60;98.90;;;;;;5091638;28;20192;-65
2022/11/13 13:44:44;;;;;;;0.40;0.40;;;16.60;98.90;;;;;;5091301;28;20575;-64
2022/11/13 13:47:37;;;;;;;0.40;0.40;;;16.50;98.90;;;;;;5091626;28;20595;-64
2022/11/13 13:50:30;;;;;;;0.40;0.40;;;16.50;98.90;;;;;;5090577;28;20279;-65
2022/11/13 13:53:32;;;;;;;0.40;0.40;;;16.60;98.90;;;;;;5092795;28;20212;-65
2022/11/13 13:56:23;;;;;;;0.40;0.40;;;16.50;98.90;;;;;;5093885;28;20220;-65
2022/11/13 13:59:16;;;;;;;0.40;0.40;;;16.60;98.90;;;;;;5111955;28;20226;-65
2022/11/13 14:02:15;;;;;;;0.40;0.40;;;16.60;98.90;;;;;;5112976;28;20286;-65
2022/11/13 14:05:17;;;;;;;0.40;0.40;;;16.60;98.90;;;;;;5113859;28;20717;-65
2022/11/13 14:08:16;;;;;;;0.40;0.40;;;16.60;98.90;;;;;;5112840;28;20298;-64
2022/11/13 14:11:17;;;;;;;0.40;0.40;;;16.60;98.90;;;;;;5111484;28;20199;-65
2022/11/13 14:14:11;;;;;;;0.40;0.40;;;16.60;98.90;;;;;;5111918;28;20583;-64
2022/11/13 14:17:02;;;;;;;0.40;0.40;;;16.60;98.90;;;;;;5114359;28;20226;-65
2022/11/13 14:19:50;;;;;;;0.40;0.40;;;16.60;98.90;;;;;;5112014;28;20199;-65
2022/11/13 14:22:39;;;;;;;0.40;0.40;;;16.70;99.00;;;;;;5113963;28;20203;-65
2022/11/13 14:25:29;;;;;;;0.40;0.40;;;16.60;98.90;;;;;;5111933;28;20584;-65
2022/11/13 14:28:18;;;;;;;0.40;0.40;;;16.60;98.90;;;;;;5112856;28;20191;-65
2022/11/13 14:31:11;;;;;;;0.40;0.40;;;16.60;98.90;;;;;;5112722;28;20215;-65
2022/11/13 14:34:02;;;;;;;0.40;0.40;;;16.50;98.90;;;;;;5113344;28;20195;-64
2022/11/13 14:36:50;;;;;;;0.40;0.40;;;16.50;98.90;;;;;;5112569;28;20298;-65
2022/11/13 14:39:39;;;;;;;0.40;0.40;;;16.50;98.90;;;;;;5112522;28;20219;-65
2022/11/13 14:42:35;;;;;;;0.40;0.40;;;16.50;98.90;;;;;;5113360;28;20333;-65
2022/11/13 14:45:25;;;;;;;0.88;0.88;;;16.50;98.90;;;;;;5118446;28;20206;-64
2022/11/13 14:48:21;;;;;;;0.40;0.40;;;16.50;98.90;;;;;;5118183;28;20201;-65
2022/11/13 14:51:22;;;;;;;0.40;0.40;;;16.50;98.90;;;;;;5114272;28;20286;-65
2022/11/13 14:54:30;;;;;;;0.40;0.40;;;16.50;98.90;;;;;;5112432;28;20194;-64